sensor_id;sensor_type;location;lat;lon;timestamp;P1;durP1;ratioP1;P2;durP2;ratioP2
46643;SDS011;32371;51.032;5.816;2022-08-03T00:01:49;1.85;;;1.17;;
46643;SDS011;32371;51.032;5.816;2022-08-03T00:04:15;3.40;;;1.40;;
46643;SDS011;32371;51.032;5.816;2022-08-03T00:06:40;1.70;;;1.08;;
46643;SDS011;32371;51.032;5.816;2022-08-03T00:09:05;3.03;;;1.02;;
46643;SDS011;32371;51.032;5.816;2022-08-03T00:11:31;8.02;;;1.20;;
46643;SDS011;32371;51.032;5.816;2022-08-03T00:13:57;5.53;;;1.35;;
46643;SDS011;32371;51.032;5.816;2022-08-03T00:16:22;2.80;;;1.33;;
46643;SDS011;32371;51.032;5.816;2022-08-03T00:18:50;2.08;;;0.95;;
46643;SDS011;32371;51.032;5.816;2022-08-03T00:21:15;4.35;;;1.33;;
46643;SDS011;32371;51.032;5.816;2022-08-03T00:23:41;2.97;;;1.25;;
46643;SDS011;32371;51.032;5.816;2022-08-03T00:26:06;1.73;;;1.40;;
46643;SDS011;32371;51.032;5.816;2022-08-03T00:28:31;6.80;;;1.42;;
46643;SDS011;32371;51.032;5.816;2022-08-03T00:30:57;3.20;;;1.00;;
46643;SDS011;32371;51.032;5.816;2022-08-03T00:33:22;4.90;;;1.35;;
46643;SDS011;32371;51.032;5.816;2022-08-03T00:35:48;2.53;;;1.10;;
46643;SDS011;32371;51.032;5.816;2022-08-03T00:38:13;4.38;;;1.15;;
46643;SDS011;32371;51.032;5.816;2022-08-03T00:40:38;1.88;;;1.45;;
46643;SDS011;32371;51.032;5.816;2022-08-03T00:43:05;3.03;;;1.35;;
46643;SDS011;32371;51.032;5.816;2022-08-03T00:45:35;5.60;;;1.50;;
46643;SDS011;32371;51.032;5.816;2022-08-03T00:48:05;4.15;;;1.35;;
46643;SDS011;32371;51.032;5.816;2022-08-03T00:50:32;9.77;;;2.10;;
46643;SDS011;32371;51.032;5.816;2022-08-03T00:53:00;6.80;;;1.25;;
46643;SDS011;32371;51.032;5.816;2022-08-03T00:55:27;4.18;;;1.33;;
46643;SDS011;32371;51.032;5.816;2022-08-03T00:57:52;1.73;;;1.23;;
46643;SDS011;32371;51.032;5.816;2022-08-03T01:00:24;6.68;;;1.83;;
46643;SDS011;32371;51.032;5.816;2022-08-03T01:02:51;6.68;;;1.45;;
46643;SDS011;32371;51.032;5.816;2022-08-03T01:05:17;1.75;;;1.00;;
46643;SDS011;32371;51.032;5.816;2022-08-03T01:08:01;6.53;;;1.17;;
46643;SDS011;32371;51.032;5.816;2022-08-03T01:16:05;7.95;;;1.52;;
46643;SDS011;32371;51.032;5.816;2022-08-03T01:32:12;4.10;;;1.70;;
46643;SDS011;32371;51.032;5.816;2022-08-03T01:34:41;3.92;;;1.40;;
46643;SDS011;32371;51.032;5.816;2022-08-03T01:37:09;2.83;;;1.48;;
46643;SDS011;32371;51.032;5.816;2022-08-03T01:39:36;2.45;;;1.20;;
46643;SDS011;32371;51.032;5.816;2022-08-03T01:42:04;3.88;;;1.30;;
46643;SDS011;32371;51.032;5.816;2022-08-03T01:44:32;8.93;;;1.02;;
46643;SDS011;32371;51.032;5.816;2022-08-03T01:47:00;4.32;;;1.33;;
46643;SDS011;32371;51.032;5.816;2022-08-03T01:49:27;1.10;;;1.00;;
46643;SDS011;32371;51.032;5.816;2022-08-03T01:51:54;1.98;;;1.70;;
46643;SDS011;32371;51.032;5.816;2022-08-03T01:54:20;2.78;;;1.17;;
46643;SDS011;32371;51.032;5.816;2022-08-03T01:56:48;3.75;;;1.42;;
46643;SDS011;32371;51.032;5.816;2022-08-03T01:59:13;3.75;;;1.42;;
46643;SDS011;32371;51.032;5.816;2022-08-03T02:01:40;5.38;;;1.50;;
46643;SDS011;32371;51.032;5.816;2022-08-03T02:04:07;4.03;;;2.15;;
46643;SDS011;32371;51.032;5.816;2022-08-03T02:06:33;2.78;;;1.48;;
46643;SDS011;32371;51.032;5.816;2022-08-03T02:08:59;2.58;;;1.40;;
46643;SDS011;32371;51.032;5.816;2022-08-03T02:11:27;2.40;;;1.25;;
46643;SDS011;32371;51.032;5.816;2022-08-03T02:13:54;2.30;;;1.42;;
46643;SDS011;32371;51.032;5.816;2022-08-03T02:16:22;3.25;;;1.45;;
46643;SDS011;32371;51.032;5.816;2022-08-03T02:18:48;5.00;;;1.33;;
46643;SDS011;32371;51.032;5.816;2022-08-03T02:21:14;6.38;;;1.50;;
46643;SDS011;32371;51.032;5.816;2022-08-03T02:23:40;6.80;;;1.50;;
46643;SDS011;32371;51.032;5.816;2022-08-03T02:26:06;6.50;;;1.42;;
46643;SDS011;32371;51.032;5.816;2022-08-03T02:28:34;1.58;;;1.17;;
46643;SDS011;32371;51.032;5.816;2022-08-03T02:31:02;8.07;;;1.55;;
46643;SDS011;32371;51.032;5.816;2022-08-03T02:33:31;6.10;;;2.00;;
46643;SDS011;32371;51.032;5.816;2022-08-03T02:35:59;5.13;;;1.55;;
46643;SDS011;32371;51.032;5.816;2022-08-03T02:38:27;5.15;;;1.48;;
46643;SDS011;32371;51.032;5.816;2022-08-03T02:40:55;6.60;;;1.60;;
46643;SDS011;32371;51.032;5.816;2022-08-03T02:43:22;12.70;;;1.77;;
46643;SDS011;32371;51.032;5.816;2022-08-03T02:45:49;3.85;;;1.50;;
46643;SDS011;32371;51.032;5.816;2022-08-03T02:48:25;4.32;;;1.30;;
46643;SDS011;32371;51.032;5.816;2022-08-03T02:50:53;8.90;;;1.77;;
46643;SDS011;32371;51.032;5.816;2022-08-03T02:53:21;4.40;;;1.67;;
46643;SDS011;32371;51.032;5.816;2022-08-03T02:55:47;4.68;;;1.40;;
46643;SDS011;32371;51.032;5.816;2022-08-03T02:58:13;3.33;;;1.73;;
46643;SDS011;32371;51.032;5.816;2022-08-03T03:00:42;2.38;;;1.50;;
46643;SDS011;32371;51.032;5.816;2022-08-03T03:03:08;3.55;;;1.42;;
46643;SDS011;32371;51.032;5.816;2022-08-03T03:05:34;1.73;;;1.42;;
46643;SDS011;32371;51.032;5.816;2022-08-03T03:08:01;5.28;;;1.50;;
46643;SDS011;32371;51.032;5.816;2022-08-03T03:10:26;5.53;;;2.33;;
46643;SDS011;32371;51.032;5.816;2022-08-03T03:12:54;4.97;;;1.90;;
46643;SDS011;32371;51.032;5.816;2022-08-03T03:15:21;6.78;;;1.75;;
46643;SDS011;32371;51.032;5.816;2022-08-03T03:17:48;4.20;;;1.75;;
46643;SDS011;32371;51.032;5.816;2022-08-03T03:20:14;3.58;;;2.00;;
46643;SDS011;32371;51.032;5.816;2022-08-03T03:22:39;3.28;;;1.40;;
46643;SDS011;32371;51.032;5.816;2022-08-03T03:25:05;3.97;;;1.65;;
46643;SDS011;32371;51.032;5.816;2022-08-03T03:27:31;4.15;;;1.52;;
46643;SDS011;32371;51.032;5.816;2022-08-03T03:29:58;5.78;;;1.63;;
46643;SDS011;32371;51.032;5.816;2022-08-03T03:32:25;8.57;;;1.90;;
46643;SDS011;32371;51.032;5.816;2022-08-03T03:34:51;4.07;;;2.25;;
46643;SDS011;32371;51.032;5.816;2022-08-03T03:37:18;4.00;;;1.70;;
46643;SDS011;32371;51.032;5.816;2022-08-03T03:39:43;4.95;;;1.75;;
46643;SDS011;32371;51.032;5.816;2022-08-03T03:42:08;3.95;;;1.83;;
46643;SDS011;32371;51.032;5.816;2022-08-03T03:44:34;4.20;;;1.65;;
46643;SDS011;32371;51.032;5.816;2022-08-03T03:46:59;5.03;;;1.75;;
46643;SDS011;32371;51.032;5.816;2022-08-03T03:49:25;8.10;;;2.08;;
46643;SDS011;32371;51.032;5.816;2022-08-03T03:51:54;3.55;;;1.58;;
46643;SDS011;32371;51.032;5.816;2022-08-03T03:54:20;4.53;;;1.40;;
46643;SDS011;32371;51.032;5.816;2022-08-03T03:56:45;5.82;;;2.40;;
46643;SDS011;32371;51.032;5.816;2022-08-03T03:59:11;2.70;;;1.50;;
46643;SDS011;32371;51.032;5.816;2022-08-03T04:01:37;4.00;;;1.90;;
46643;SDS011;32371;51.032;5.816;2022-08-03T04:04:03;5.90;;;1.95;;
46643;SDS011;32371;51.032;5.816;2022-08-03T04:06:48;5.60;;;1.75;;
46643;SDS011;32371;51.032;5.816;2022-08-03T04:09:33;6.30;;;1.85;;
46643;SDS011;32371;51.032;5.816;2022-08-03T04:12:18;9.98;;;2.15;;
46643;SDS011;32371;51.032;5.816;2022-08-03T04:14:43;5.63;;;2.45;;
46643;SDS011;32371;51.032;5.816;2022-08-03T04:17:10;8.32;;;2.03;;
46643;SDS011;32371;51.032;5.816;2022-08-03T04:19:44;3.50;;;1.50;;
46643;SDS011;32371;51.032;5.816;2022-08-03T04:22:12;2.03;;;1.63;;
46643;SDS011;32371;51.032;5.816;2022-08-03T04:24:42;5.63;;;2.03;;
46643;SDS011;32371;51.032;5.816;2022-08-03T04:27:13;6.10;;;2.00;;
46643;SDS011;32371;51.032;5.816;2022-08-03T04:29:42;5.28;;;1.90;;
46643;SDS011;32371;51.032;5.816;2022-08-03T04:32:09;5.47;;;1.67;;
46643;SDS011;32371;51.032;5.816;2022-08-03T04:34:35;3.30;;;1.83;;
46643;SDS011;32371;51.032;5.816;2022-08-03T04:37:01;8.13;;;2.25;;
46643;SDS011;32371;51.032;5.816;2022-08-03T04:39:31;5.15;;;2.20;;
46643;SDS011;32371;51.032;5.816;2022-08-03T04:41:57;8.02;;;1.65;;
46643;SDS011;32371;51.032;5.816;2022-08-03T04:44:26;4.20;;;1.60;;
46643;SDS011;32371;51.032;5.816;2022-08-03T04:46:52;12.85;;;2.33;;
46643;SDS011;32371;51.032;5.816;2022-08-03T04:49:21;6.78;;;2.13;;
46643;SDS011;32371;51.032;5.816;2022-08-03T04:51:48;3.90;;;2.42;;
46643;SDS011;32371;51.032;5.816;2022-08-03T04:54:13;7.30;;;2.10;;
46643;SDS011;32371;51.032;5.816;2022-08-03T04:56:40;3.50;;;2.00;;
46643;SDS011;32371;51.032;5.816;2022-08-03T04:59:06;10.27;;;2.13;;
46643;SDS011;32371;51.032;5.816;2022-08-03T05:01:32;5.68;;;1.65;;
46643;SDS011;32371;51.032;5.816;2022-08-03T05:03:58;6.18;;;1.40;;
46643;SDS011;32371;51.032;5.816;2022-08-03T05:06:23;5.05;;;2.05;;
46643;SDS011;32371;51.032;5.816;2022-08-03T05:08:48;7.05;;;2.00;;
46643;SDS011;32371;51.032;5.816;2022-08-03T05:11:14;3.92;;;1.88;;
46643;SDS011;32371;51.032;5.816;2022-08-03T05:13:40;2.47;;;1.42;;
46643;SDS011;32371;51.032;5.816;2022-08-03T05:16:05;3.47;;;1.50;;
46643;SDS011;32371;51.032;5.816;2022-08-03T05:18:31;3.45;;;1.70;;
46643;SDS011;32371;51.032;5.816;2022-08-03T05:20:56;2.72;;;1.45;;
46643;SDS011;32371;51.032;5.816;2022-08-03T05:23:22;9.35;;;1.70;;
46643;SDS011;32371;51.032;5.816;2022-08-03T05:25:47;7.90;;;1.88;;
46643;SDS011;32371;51.032;5.816;2022-08-03T05:28:12;8.68;;;2.05;;
46643;SDS011;32371;51.032;5.816;2022-08-03T05:30:38;6.32;;;1.63;;
46643;SDS011;32371;51.032;5.816;2022-08-03T05:33:03;3.78;;;1.70;;
46643;SDS011;32371;51.032;5.816;2022-08-03T05:35:29;5.90;;;1.95;;
46643;SDS011;32371;51.032;5.816;2022-08-03T05:37:55;6.28;;;1.58;;
46643;SDS011;32371;51.032;5.816;2022-08-03T05:40:20;12.00;;;2.40;;
46643;SDS011;32371;51.032;5.816;2022-08-03T05:42:46;8.88;;;1.65;;
46643;SDS011;32371;51.032;5.816;2022-08-03T05:45:11;6.75;;;1.67;;
46643;SDS011;32371;51.032;5.816;2022-08-03T05:47:41;5.07;;;1.52;;
46643;SDS011;32371;51.032;5.816;2022-08-03T05:50:08;2.50;;;1.88;;
46643;SDS011;32371;51.032;5.816;2022-08-03T05:52:35;11.68;;;1.77;;
46643;SDS011;32371;51.032;5.816;2022-08-03T05:55:00;3.15;;;1.40;;
46643;SDS011;32371;51.032;5.816;2022-08-03T05:57:25;4.13;;;2.22;;
46643;SDS011;32371;51.032;5.816;2022-08-03T05:59:51;2.88;;;1.80;;
46643;SDS011;32371;51.032;5.816;2022-08-03T06:02:16;8.00;;;1.77;;
46643;SDS011;32371;51.032;5.816;2022-08-03T06:04:41;4.78;;;1.60;;
46643;SDS011;32371;51.032;5.816;2022-08-03T06:07:07;5.45;;;1.98;;
46643;SDS011;32371;51.032;5.816;2022-08-03T06:09:32;2.78;;;1.40;;
46643;SDS011;32371;51.032;5.816;2022-08-03T06:11:58;8.25;;;1.65;;
46643;SDS011;32371;51.032;5.816;2022-08-03T06:14:23;5.25;;;1.88;;
46643;SDS011;32371;51.032;5.816;2022-08-03T06:16:48;3.88;;;1.83;;
46643;SDS011;32371;51.032;5.816;2022-08-03T06:19:14;6.35;;;1.63;;
46643;SDS011;32371;51.032;5.816;2022-08-03T06:21:39;3.38;;;1.50;;
46643;SDS011;32371;51.032;5.816;2022-08-03T06:24:05;3.88;;;1.50;;
46643;SDS011;32371;51.032;5.816;2022-08-03T06:26:30;5.72;;;1.50;;
46643;SDS011;32371;51.032;5.816;2022-08-03T06:28:56;4.57;;;1.38;;
46643;SDS011;32371;51.032;5.816;2022-08-03T06:31:22;2.10;;;1.40;;
46643;SDS011;32371;51.032;5.816;2022-08-03T06:33:50;4.30;;;1.27;;
46643;SDS011;32371;51.032;5.816;2022-08-03T06:36:15;3.55;;;1.63;;
46643;SDS011;32371;51.032;5.816;2022-08-03T06:38:41;4.90;;;1.05;;
46643;SDS011;32371;51.032;5.816;2022-08-03T06:41:06;7.65;;;1.75;;
46643;SDS011;32371;51.032;5.816;2022-08-03T06:43:31;4.45;;;1.52;;
46643;SDS011;32371;51.032;5.816;2022-08-03T06:46:01;7.55;;;1.50;;
46643;SDS011;32371;51.032;5.816;2022-08-03T06:48:26;7.75;;;1.65;;
46643;SDS011;32371;51.032;5.816;2022-08-03T06:50:52;7.03;;;1.55;;
46643;SDS011;32371;51.032;5.816;2022-08-03T06:53:17;2.72;;;1.85;;
46643;SDS011;32371;51.032;5.816;2022-08-03T06:55:42;1.30;;;1.02;;
46643;SDS011;32371;51.032;5.816;2022-08-03T06:58:08;4.78;;;1.08;;
46643;SDS011;32371;51.032;5.816;2022-08-03T07:00:33;1.52;;;0.70;;
46643;SDS011;32371;51.032;5.816;2022-08-03T07:02:59;2.50;;;0.88;;
46643;SDS011;32371;51.032;5.816;2022-08-03T07:05:24;1.45;;;1.13;;
46643;SDS011;32371;51.032;5.816;2022-08-03T07:07:50;1.27;;;0.70;;
46643;SDS011;32371;51.032;5.816;2022-08-03T07:10:19;3.65;;;1.40;;
46643;SDS011;32371;51.032;5.816;2022-08-03T07:12:44;2.05;;;1.20;;
46643;SDS011;32371;51.032;5.816;2022-08-03T07:15:11;5.07;;;1.30;;
46643;SDS011;32371;51.032;5.816;2022-08-03T07:17:36;3.42;;;0.77;;
46643;SDS011;32371;51.032;5.816;2022-08-03T07:20:03;2.00;;;1.20;;
46643;SDS011;32371;51.032;5.816;2022-08-03T07:22:30;2.67;;;1.05;;
46643;SDS011;32371;51.032;5.816;2022-08-03T07:24:56;2.13;;;1.20;;
46643;SDS011;32371;51.032;5.816;2022-08-03T07:27:21;3.45;;;1.33;;
46643;SDS011;32371;51.032;5.816;2022-08-03T07:29:47;2.38;;;0.65;;
46643;SDS011;32371;51.032;5.816;2022-08-03T07:32:12;3.22;;;0.85;;
46643;SDS011;32371;51.032;5.816;2022-08-03T07:34:37;3.55;;;1.05;;
46643;SDS011;32371;51.032;5.816;2022-08-03T07:37:03;2.65;;;0.90;;
46643;SDS011;32371;51.032;5.816;2022-08-03T07:39:28;6.05;;;0.77;;
46643;SDS011;32371;51.032;5.816;2022-08-03T07:41:54;7.55;;;1.40;;
46643;SDS011;32371;51.032;5.816;2022-08-03T07:44:19;2.40;;;1.00;;
46643;SDS011;32371;51.032;5.816;2022-08-03T07:46:45;2.22;;;1.00;;
46643;SDS011;32371;51.032;5.816;2022-08-03T07:49:11;1.75;;;0.93;;
46643;SDS011;32371;51.032;5.816;2022-08-03T07:51:37;1.00;;;0.90;;
46643;SDS011;32371;51.032;5.816;2022-08-03T07:54:02;4.60;;;1.10;;
46643;SDS011;32371;51.032;5.816;2022-08-03T07:56:28;3.97;;;0.80;;
46643;SDS011;32371;51.032;5.816;2022-08-03T07:58:54;3.40;;;0.90;;
46643;SDS011;32371;51.032;5.816;2022-08-03T08:01:19;3.28;;;1.00;;
46643;SDS011;32371;51.032;5.816;2022-08-03T08:03:46;2.97;;;0.90;;
46643;SDS011;32371;51.032;5.816;2022-08-03T08:06:12;3.58;;;0.90;;
46643;SDS011;32371;51.032;5.816;2022-08-03T08:08:38;3.63;;;0.70;;
46643;SDS011;32371;51.032;5.816;2022-08-03T08:11:03;2.50;;;0.88;;
46643;SDS011;32371;51.032;5.816;2022-08-03T08:13:29;4.60;;;1.30;;
46643;SDS011;32371;51.032;5.816;2022-08-03T08:15:54;3.50;;;0.93;;
46643;SDS011;32371;51.032;5.816;2022-08-03T08:18:20;2.13;;;1.17;;
46643;SDS011;32371;51.032;5.816;2022-08-03T08:20:45;4.65;;;1.00;;
46643;SDS011;32371;51.032;5.816;2022-08-03T08:23:11;1.20;;;0.80;;
46643;SDS011;32371;51.032;5.816;2022-08-03T08:25:36;2.22;;;0.82;;
46643;SDS011;32371;51.032;5.816;2022-08-03T08:28:01;8.05;;;1.15;;
46643;SDS011;32371;51.032;5.816;2022-08-03T08:30:28;2.38;;;0.80;;
46643;SDS011;32371;51.032;5.816;2022-08-03T08:32:54;4.20;;;0.40;;
46643;SDS011;32371;51.032;5.816;2022-08-03T08:35:19;3.58;;;0.90;;
46643;SDS011;32371;51.032;5.816;2022-08-03T08:37:45;1.25;;;0.77;;
46643;SDS011;32371;51.032;5.816;2022-08-03T08:40:11;1.95;;;0.55;;
46643;SDS011;32371;51.032;5.816;2022-08-03T08:42:37;3.28;;;0.90;;
46643;SDS011;32371;51.032;5.816;2022-08-03T08:45:03;4.10;;;0.55;;
46643;SDS011;32371;51.032;5.816;2022-08-03T08:47:30;3.55;;;0.47;;
46643;SDS011;32371;51.032;5.816;2022-08-03T08:49:57;0.70;;;0.55;;
46643;SDS011;32371;51.032;5.816;2022-08-03T08:52:23;1.75;;;0.77;;
46643;SDS011;32371;51.032;5.816;2022-08-03T08:54:51;1.88;;;0.52;;
46643;SDS011;32371;51.032;5.816;2022-08-03T08:57:18;5.82;;;0.52;;
46643;SDS011;32371;51.032;5.816;2022-08-03T08:59:44;3.17;;;0.55;;
46643;SDS011;32371;51.032;5.816;2022-08-03T09:02:09;3.65;;;0.63;;
46643;SDS011;32371;51.032;5.816;2022-08-03T09:04:36;1.30;;;0.68;;
46643;SDS011;32371;51.032;5.816;2022-08-03T09:07:02;5.45;;;0.70;;
46643;SDS011;32371;51.032;5.816;2022-08-03T09:09:28;6.30;;;0.70;;
46643;SDS011;32371;51.032;5.816;2022-08-03T09:11:54;1.67;;;0.60;;
46643;SDS011;32371;51.032;5.816;2022-08-03T09:14:20;2.75;;;0.47;;
46643;SDS011;32371;51.032;5.816;2022-08-03T09:16:58;3.30;;;1.00;;
46643;SDS011;32371;51.032;5.816;2022-08-03T09:19:31;1.52;;;0.70;;
46643;SDS011;32371;51.032;5.816;2022-08-03T09:24:35;2.58;;;0.70;;
46643;SDS011;32371;51.032;5.816;2022-08-03T09:27:01;0.75;;;0.45;;
46643;SDS011;32371;51.032;5.816;2022-08-03T09:29:31;1.33;;;0.70;;
46643;SDS011;32371;51.032;5.816;2022-08-03T09:32:01;2.38;;;0.40;;
46643;SDS011;32371;51.032;5.816;2022-08-03T09:34:27;3.17;;;0.50;;
46643;SDS011;32371;51.032;5.816;2022-08-03T09:36:53;4.05;;;0.85;;
46643;SDS011;32371;51.032;5.816;2022-08-03T09:39:23;1.10;;;0.40;;
46643;SDS011;32371;51.032;5.816;2022-08-03T09:42:09;1.70;;;0.98;;
46643;SDS011;32371;51.032;5.816;2022-08-03T09:44:37;1.63;;;0.70;;
46643;SDS011;32371;51.032;5.816;2022-08-03T09:47:04;3.80;;;0.80;;
46643;SDS011;32371;51.032;5.816;2022-08-03T09:49:30;5.05;;;0.65;;
46643;SDS011;32371;51.032;5.816;2022-08-03T09:51:56;4.95;;;1.17;;
46643;SDS011;32371;51.032;5.816;2022-08-03T09:54:26;1.13;;;0.50;;
46643;SDS011;32371;51.032;5.816;2022-08-03T09:56:55;2.25;;;0.80;;
46643;SDS011;32371;51.032;5.816;2022-08-03T10:01:53;3.75;;;0.60;;
46643;SDS011;32371;51.032;5.816;2022-08-03T10:04:19;1.02;;;0.93;;
46643;SDS011;32371;51.032;5.816;2022-08-03T10:07:00;4.00;;;3.80;;
46643;SDS011;32371;51.032;5.816;2022-08-03T10:09:27;3.05;;;1.77;;
46643;SDS011;32371;51.032;5.816;2022-08-03T10:11:52;2.28;;;0.80;;
46643;SDS011;32371;51.032;5.816;2022-08-03T10:14:18;0.65;;;0.60;;
46643;SDS011;32371;51.032;5.816;2022-08-03T10:16:44;5.82;;;0.88;;
46643;SDS011;32371;51.032;5.816;2022-08-03T10:19:10;4.78;;;0.70;;
46643;SDS011;32371;51.032;5.816;2022-08-03T10:21:37;1.30;;;0.65;;
46643;SDS011;32371;51.032;5.816;2022-08-03T10:24:04;7.22;;;0.98;;
46643;SDS011;32371;51.032;5.816;2022-08-03T10:26:37;2.92;;;0.80;;
46643;SDS011;32371;51.032;5.816;2022-08-03T10:29:04;15.95;;;2.05;;
46643;SDS011;32371;51.032;5.816;2022-08-03T10:31:39;24.20;;;2.90;;
46643;SDS011;32371;51.032;5.816;2022-08-03T10:34:08;6.45;;;1.23;;
46643;SDS011;32371;51.032;5.816;2022-08-03T10:36:37;20.70;;;2.05;;
46643;SDS011;32371;51.032;5.816;2022-08-03T10:39:03;2.67;;;0.73;;
46643;SDS011;32371;51.032;5.816;2022-08-03T10:41:35;6.75;;;1.73;;
46643;SDS011;32371;51.032;5.816;2022-08-03T10:46:34;1.70;;;0.82;;
46643;SDS011;32371;51.032;5.816;2022-08-03T10:49:01;4.80;;;1.15;;
46643;SDS011;32371;51.032;5.816;2022-08-03T10:51:26;7.05;;;1.00;;
46643;SDS011;32371;51.032;5.816;2022-08-03T10:53:56;4.07;;;0.75;;
46643;SDS011;32371;51.032;5.816;2022-08-03T10:56:55;2.65;;;1.02;;
46643;SDS011;32371;51.032;5.816;2022-08-03T11:02:09;3.40;;;0.60;;
46643;SDS011;32371;51.032;5.816;2022-08-03T11:04:36;2.83;;;0.82;;
46643;SDS011;32371;51.032;5.816;2022-08-03T11:09:40;2.15;;;0.77;;
46643;SDS011;32371;51.032;5.816;2022-08-03T11:12:19;1.77;;;0.75;;
46643;SDS011;32371;51.032;5.816;2022-08-03T11:14:49;0.40;;;0.40;;
46643;SDS011;32371;51.032;5.816;2022-08-03T11:17:15;1.95;;;0.68;;
46643;SDS011;32371;51.032;5.816;2022-08-03T11:19:44;3.22;;;1.25;;
46643;SDS011;32371;51.032;5.816;2022-08-03T11:22:14;1.52;;;0.57;;
46643;SDS011;32371;51.032;5.816;2022-08-03T11:37:35;3.00;;;0.52;;
46643;SDS011;32371;51.032;5.816;2022-08-03T11:41:03;2.13;;;0.98;;
46643;SDS011;32371;51.032;5.816;2022-08-03T11:46:09;1.45;;;0.93;;
46643;SDS011;32371;51.032;5.816;2022-08-03T11:48:41;1.60;;;0.60;;
46643;SDS011;32371;51.032;5.816;2022-08-03T11:53:54;1.40;;;0.70;;
46643;SDS011;32371;51.032;5.816;2022-08-03T11:56:20;1.40;;;0.55;;
46643;SDS011;32371;51.032;5.816;2022-08-03T11:58:46;1.45;;;0.73;;
46643;SDS011;32371;51.032;5.816;2022-08-03T12:01:12;0.40;;;0.40;;
46643;SDS011;32371;51.032;5.816;2022-08-03T12:03:40;0.80;;;0.47;;
46643;SDS011;32371;51.032;5.816;2022-08-03T12:06:11;0.57;;;0.40;;
46643;SDS011;32371;51.032;5.816;2022-08-03T12:08:37;1.40;;;0.40;;
46643;SDS011;32371;51.032;5.816;2022-08-03T12:11:04;1.17;;;0.57;;
46643;SDS011;32371;51.032;5.816;2022-08-03T12:13:35;0.47;;;0.47;;
46643;SDS011;32371;51.032;5.816;2022-08-03T12:16:02;1.98;;;0.57;;
46643;SDS011;32371;51.032;5.816;2022-08-03T12:18:27;1.77;;;0.50;;
46643;SDS011;32371;51.032;5.816;2022-08-03T12:20:54;0.65;;;0.65;;
46643;SDS011;32371;51.032;5.816;2022-08-03T12:23:28;1.23;;;0.30;;
46643;SDS011;32371;51.032;5.816;2022-08-03T12:26:00;0.63;;;0.60;;
46643;SDS011;32371;51.032;5.816;2022-08-03T12:28:26;3.35;;;0.57;;
46643;SDS011;32371;51.032;5.816;2022-08-03T12:30:51;3.97;;;0.85;;
46643;SDS011;32371;51.032;5.816;2022-08-03T12:33:22;2.05;;;0.73;;
46643;SDS011;32371;51.032;5.816;2022-08-03T12:38:34;2.17;;;0.60;;
46643;SDS011;32371;51.032;5.816;2022-08-03T12:41:01;0.85;;;0.30;;
46643;SDS011;32371;51.032;5.816;2022-08-03T12:43:30;0.43;;;0.43;;
46643;SDS011;32371;51.032;5.816;2022-08-03T12:46:13;2.47;;;0.82;;
46643;SDS011;32371;51.032;5.816;2022-08-03T12:51:54;0.57;;;0.40;;
46643;SDS011;32371;51.032;5.816;2022-08-03T12:54:24;1.10;;;0.57;;
46643;SDS011;32371;51.032;5.816;2022-08-03T12:56:56;1.58;;;0.70;;
46643;SDS011;32371;51.032;5.816;2022-08-03T12:59:22;0.80;;;0.35;;
46643;SDS011;32371;51.032;5.816;2022-08-03T13:01:49;0.82;;;0.40;;
46643;SDS011;32371;51.032;5.816;2022-08-03T13:04:23;0.73;;;0.55;;
46643;SDS011;32371;51.032;5.816;2022-08-03T13:07:11;0.47;;;0.40;;
46643;SDS011;32371;51.032;5.816;2022-08-03T13:09:40;1.38;;;0.45;;
46643;SDS011;32371;51.032;5.816;2022-08-03T13:14:43;3.65;;;0.73;;
46643;SDS011;32371;51.032;5.816;2022-08-03T13:17:09;2.10;;;0.47;;
46643;SDS011;32371;51.032;5.816;2022-08-03T13:19:35;0.43;;;0.40;;
46643;SDS011;32371;51.032;5.816;2022-08-03T13:22:11;0.50;;;0.50;;
46643;SDS011;32371;51.032;5.816;2022-08-03T13:24:37;0.45;;;0.45;;
46643;SDS011;32371;51.032;5.816;2022-08-03T13:27:02;0.82;;;0.68;;
46643;SDS011;32371;51.032;5.816;2022-08-03T13:29:30;3.38;;;1.60;;
46643;SDS011;32371;51.032;5.816;2022-08-03T13:31:55;0.75;;;0.52;;
46643;SDS011;32371;51.032;5.816;2022-08-03T13:34:21;0.75;;;0.57;;
46643;SDS011;32371;51.032;5.816;2022-08-03T13:36:46;2.20;;;0.52;;
46643;SDS011;32371;51.032;5.816;2022-08-03T13:39:11;2.17;;;0.40;;
46643;SDS011;32371;51.032;5.816;2022-08-03T13:41:37;2.13;;;0.50;;
46643;SDS011;32371;51.032;5.816;2022-08-03T13:44:02;1.20;;;0.50;;
46643;SDS011;32371;51.032;5.816;2022-08-03T13:46:28;0.85;;;0.50;;
46643;SDS011;32371;51.032;5.816;2022-08-03T13:48:53;0.77;;;0.40;;
46643;SDS011;32371;51.032;5.816;2022-08-03T13:51:18;3.22;;;0.50;;
46643;SDS011;32371;51.032;5.816;2022-08-03T13:53:44;2.58;;;0.40;;
46643;SDS011;32371;51.032;5.816;2022-08-03T13:56:09;0.40;;;0.40;;
46643;SDS011;32371;51.032;5.816;2022-08-03T13:58:34;2.40;;;0.40;;
46643;SDS011;32371;51.032;5.816;2022-08-03T14:01:00;2.17;;;0.63;;
46643;SDS011;32371;51.032;5.816;2022-08-03T14:03:25;1.73;;;0.40;;
46643;SDS011;32371;51.032;5.816;2022-08-03T14:05:50;0.50;;;0.50;;
46643;SDS011;32371;51.032;5.816;2022-08-03T14:08:16;3.00;;;0.50;;
46643;SDS011;32371;51.032;5.816;2022-08-03T14:10:42;1.05;;;0.57;;
46643;SDS011;32371;51.032;5.816;2022-08-03T14:13:09;1.38;;;0.70;;
46643;SDS011;32371;51.032;5.816;2022-08-03T14:15:35;2.72;;;0.30;;
46643;SDS011;32371;51.032;5.816;2022-08-03T14:18:01;0.65;;;0.30;;
46643;SDS011;32371;51.032;5.816;2022-08-03T14:20:26;0.50;;;0.40;;
46643;SDS011;32371;51.032;5.816;2022-08-03T14:22:51;3.10;;;0.50;;
46643;SDS011;32371;51.032;5.816;2022-08-03T14:25:18;0.55;;;0.30;;
46643;SDS011;32371;51.032;5.816;2022-08-03T14:27:44;1.75;;;0.50;;
46643;SDS011;32371;51.032;5.816;2022-08-03T14:30:09;1.13;;;0.57;;
46643;SDS011;32371;51.032;5.816;2022-08-03T14:32:35;1.58;;;0.57;;
46643;SDS011;32371;51.032;5.816;2022-08-03T14:35:00;1.15;;;0.30;;
46643;SDS011;32371;51.032;5.816;2022-08-03T14:37:26;0.90;;;0.47;;
46643;SDS011;32371;51.032;5.816;2022-08-03T14:39:51;0.38;;;0.22;;
46643;SDS011;32371;51.032;5.816;2022-08-03T14:42:17;0.60;;;0.32;;
46643;SDS011;32371;51.032;5.816;2022-08-03T14:44:44;3.13;;;0.75;;
46643;SDS011;32371;51.032;5.816;2022-08-03T14:47:09;0.68;;;0.43;;
46643;SDS011;32371;51.032;5.816;2022-08-03T14:49:34;0.70;;;0.52;;
46643;SDS011;32371;51.032;5.816;2022-08-03T14:52:00;1.92;;;0.40;;
46643;SDS011;32371;51.032;5.816;2022-08-03T14:54:25;0.93;;;0.30;;
46643;SDS011;32371;51.032;5.816;2022-08-03T14:56:54;2.25;;;0.40;;
46643;SDS011;32371;51.032;5.816;2022-08-03T14:59:20;0.35;;;0.28;;
46643;SDS011;32371;51.032;5.816;2022-08-03T15:01:45;1.77;;;0.40;;
46643;SDS011;32371;51.032;5.816;2022-08-03T15:04:10;1.45;;;0.60;;
46643;SDS011;32371;51.032;5.816;2022-08-03T15:06:36;2.08;;;0.20;;
46643;SDS011;32371;51.032;5.816;2022-08-03T15:09:01;0.40;;;0.40;;
46643;SDS011;32371;51.032;5.816;2022-08-03T15:11:26;0.38;;;0.38;;
46643;SDS011;32371;51.032;5.816;2022-08-03T15:13:52;0.57;;;0.30;;
46643;SDS011;32371;51.032;5.816;2022-08-03T15:16:17;0.52;;;0.38;;
46643;SDS011;32371;51.032;5.816;2022-08-03T15:18:42;2.78;;;0.35;;
46643;SDS011;32371;51.032;5.816;2022-08-03T15:21:08;3.05;;;0.80;;
46643;SDS011;32371;51.032;5.816;2022-08-03T15:23:33;1.67;;;0.45;;
46643;SDS011;32371;51.032;5.816;2022-08-03T15:25:58;1.35;;;0.45;;
46643;SDS011;32371;51.032;5.816;2022-08-03T15:28:24;0.22;;;0.22;;
46643;SDS011;32371;51.032;5.816;2022-08-03T15:30:52;1.83;;;0.57;;
46643;SDS011;32371;51.032;5.816;2022-08-03T15:33:18;0.40;;;0.40;;
46643;SDS011;32371;51.032;5.816;2022-08-03T15:35:43;0.82;;;0.47;;
46643;SDS011;32371;51.032;5.816;2022-08-03T15:38:10;2.65;;;0.50;;
46643;SDS011;32371;51.032;5.816;2022-08-03T15:40:36;0.93;;;0.38;;
46643;SDS011;32371;51.032;5.816;2022-08-03T15:43:01;0.60;;;0.60;;
46643;SDS011;32371;51.032;5.816;2022-08-03T15:45:26;1.10;;;0.60;;
46643;SDS011;32371;51.032;5.816;2022-08-03T15:47:52;0.88;;;0.40;;